Time;durP1;ratioP1;P1;durP2;ratioP2;P2;SDS_P1;SDS_P2;PMS_P1;PMS_P2;Temp;Humidity;BMP_temperature;BMP_pressure;BME280_temperature;BME280_humidity;BME280_pressure;Samples;Min_cycle;Max_cycle;Signal;HPM_P1;HPM_P2
2021/12/27 00:01:44;;;;;;;19.83;13.57;;;-8.90;99.90;;;;;;7413495;19;20352;-90
2021/12/27 00:04:10;;;;;;;18.77;13.52;;;-9.00;99.90;;;;;;7415220;19;20412;-90
2021/12/27 00:06:35;;;;;;;22.52;13.65;;;-8.90;99.90;;;;;;7423072;19;20367;-87
2021/12/27 00:09:01;;;;;;;21.77;13.23;;;-8.90;99.90;;;;;;7416077;19;20320;-86
2021/12/27 00:11:27;;;;;;;19.60;14.27;;;-8.90;99.90;;;;;;7393618;19;20362;-92
2021/12/27 00:13:53;;;;;;;21.07;13.50;;;-8.90;99.90;;;;;;7393935;19;20298;-85
2021/12/27 00:16:18;;;;;;;21.85;13.18;;;-8.80;99.90;;;;;;7419214;19;20356;-87
2021/12/27 00:18:44;;;;;;;22.33;13.88;;;-8.90;99.90;;;;;;7419188;19;20356;-88
2021/12/27 00:21:10;;;;;;;19.33;13.27;;;-8.90;99.90;;;;;;7415395;19;20324;-86
2021/12/27 00:23:36;;;;;;;20.88;14.30;;;-8.80;99.90;;;;;;7419530;19;20340;-87
2021/12/27 00:26:01;;;;;;;19.93;14.00;;;-8.80;99.90;;;;;;7405725;19;20329;-88
2021/12/27 00:28:27;;;;;;;22.10;15.27;;;-8.90;99.90;;;;;;7407279;19;20353;-89
2021/12/27 00:30:53;;;;;;;19.80;13.57;;;-8.90;99.90;;;;;;7409093;19;20333;-83
2021/12/27 00:33:19;;;;;;;21.15;14.07;;;-8.90;99.90;;;;;;7393800;19;20301;-86
2021/12/27 00:35:46;;;;;;;25.77;14.13;;;-8.90;99.90;;;;;;7411425;19;20477;-80
2021/12/27 00:38:11;;;;;;;21.55;13.88;;;-8.90;99.90;;;;;;7412683;19;20347;-94
2021/12/27 00:40:37;;;;;;;18.50;12.80;;;-8.80;99.90;;;;;;7414710;19;20304;-89
2021/12/27 00:43:03;;;;;;;28.50;13.87;;;-8.80;99.90;;;;;;7406645;19;20308;-88
2021/12/27 00:45:29;;;;;;;22.77;14.25;;;-8.90;99.90;;;;;;7411184;19;20344;-86
2021/12/27 00:47:55;;;;;;;26.10;13.23;;;-8.80;99.90;;;;;;7409314;19;20321;-87
2021/12/27 00:50:20;;;;;;;18.33;13.35;;;-8.80;99.90;;;;;;7410433;19;20344;-86
2021/12/27 00:52:46;;;;;;;20.48;14.52;;;-8.80;99.90;;;;;;7411303;19;20312;-83
2021/12/27 00:55:12;;;;;;;21.80;14.90;;;-8.80;99.90;;;;;;7389166;19;20319;-84
2021/12/27 00:57:38;;;;;;;16.45;13.68;;;-8.80;99.90;;;;;;7411987;19;20320;-90
2021/12/27 01:00:09;;;;;;;22.63;14.38;;;-8.70;99.90;;;;;;7411256;19;20313;-88
2021/12/27 01:02:35;;;;;;;21.58;14.30;;;-8.80;99.90;;;;;;7414458;19;20324;-89
2021/12/27 01:05:00;;;;;;;22.20;15.00;;;-8.80;99.90;;;;;;7410454;19;20328;-82
2021/12/27 01:07:26;;;;;;;22.13;13.73;;;-8.60;99.90;;;;;;7412646;19;20400;-86
2021/12/27 01:10:06;;;;;;;14.98;12.18;;;-8.70;99.90;;;;;;7414275;19;20335;-85
2021/12/27 01:12:48;;;;;;;18.30;12.85;;;-8.70;99.90;;;;;;7412701;19;20684;-83
2021/12/27 01:17:42;;;;;;;22.08;13.93;;;-8.70;99.90;;;;;;7408412;19;20365;-83
2021/12/27 01:20:10;;;;;;;20.92;15.10;;;-8.70;99.90;;;;;;7412414;19;20303;-89
2021/12/27 01:22:36;;;;;;;29.90;15.43;;;-8.70;99.90;;;;;;7408586;19;20322;-88
2021/12/27 01:25:03;;;;;;;17.67;12.37;;;-8.60;99.90;;;;;;7411170;19;20317;-82
2021/12/27 01:27:29;;;;;;;18.15;13.45;;;-8.60;99.90;;;;;;7411674;19;20336;-89
2021/12/27 01:29:55;;;;;;;21.08;14.68;;;-8.70;99.90;;;;;;7412701;19;20341;-87
2021/12/27 01:32:23;;;;;;;22.83;13.70;;;-8.70;99.90;;;;;;7409972;19;20319;-86
2021/12/27 01:34:49;;;;;;;19.65;13.57;;;-8.50;99.90;;;;;;7407784;19;20317;-89
2021/12/27 01:37:18;;;;;;;22.00;15.63;;;-8.70;99.90;;;;;;7405870;19;20426;-81
2021/12/27 01:39:44;;;;;;;24.27;15.30;;;-8.70;99.90;;;;;;7405523;19;20385;-88
2021/12/27 01:42:10;;;;;;;22.13;14.03;;;-8.70;99.90;;;;;;7404924;19;20316;-82
2021/12/27 01:44:35;;;;;;;19.43;14.43;;;-8.70;99.90;;;;;;7404610;19;20344;-80
2021/12/27 01:47:01;;;;;;;23.40;15.18;;;-8.70;99.90;;;;;;7400171;19;20838;-81
2021/12/27 01:49:27;;;;;;;27.85;16.08;;;-8.70;99.90;;;;;;7402648;19;20284;-84
2021/12/27 01:51:52;;;;;;;14.43;12.20;;;-8.60;99.90;;;;;;7403529;19;20321;-83
2021/12/27 01:54:18;;;;;;;23.52;15.77;;;-8.70;99.90;;;;;;7405474;19;20329;-82
2021/12/27 01:56:44;;;;;;;25.05;14.60;;;-8.60;99.90;;;;;;7404717;19;20353;-89
2021/12/27 01:59:10;;;;;;;20.00;13.52;;;-8.60;99.90;;;;;;7397982;19;20345;-89
2021/12/27 02:01:42;;;;;;;18.63;14.50;;;-8.50;99.90;;;;;;7393569;19;20311;-85
2021/12/27 02:04:08;;;;;;;32.20;20.40;;;-8.50;99.90;;;;;;7410924;19;20297;-89
2021/12/27 02:06:34;;;;;;;26.38;19.45;;;-8.50;99.90;;;;;;7411062;19;20369;-92
2021/12/27 02:08:59;;;;;;;33.73;22.70;;;-8.40;99.90;;;;;;7409909;19;20356;-88
2021/12/27 02:11:26;;;;;;;35.83;23.13;;;-8.40;99.90;;;;;;7402728;19;20320;-90
2021/12/27 02:13:52;;;;;;;37.50;22.50;;;-8.30;99.90;;;;;;7409373;19;20329;-89
2021/12/27 02:16:21;;;;;;;40.25;22.90;;;-8.20;99.90;;;;;;7413106;19;20307;-90
2021/12/27 02:18:48;;;;;;;33.92;22.10;;;-8.30;99.90;;;;;;7409141;19;20380;-92
2021/12/27 02:21:14;;;;;;;35.58;21.95;;;-8.30;99.90;;;;;;7409638;19;20320;-83
2021/12/27 02:23:41;;;;;;;33.80;21.23;;;-8.30;99.90;;;;;;7416634;19;20328;-85
2021/12/27 02:26:07;;;;;;;35.20;21.92;;;-8.20;99.90;;;;;;7412003;19;20321;-87
2021/12/27 02:28:33;;;;;;;35.50;21.25;;;-8.20;99.90;;;;;;7408457;19;21022;-83
2021/12/27 02:30:58;;;;;;;35.88;22.33;;;-8.10;99.90;;;;;;7413193;19;20285;-89
2021/12/27 02:33:25;;;;;;;37.75;23.88;;;-8.10;99.90;;;;;;7410733;19;20372;-88
2021/12/27 02:35:56;;;;;;;37.08;23.88;;;-8.10;99.90;;;;;;7409083;19;20324;-88
2021/12/27 02:38:23;;;;;;;42.95;24.92;;;-8.00;99.90;;;;;;7410488;19;20336;-86
2021/12/27 02:40:52;;;;;;;42.70;25.75;;;-8.00;99.90;;;;;;7388777;19;20328;-87
2021/12/27 02:43:22;;;;;;;42.35;24.38;;;-8.00;99.90;;;;;;7409599;19;20320;-87
2021/12/27 02:45:56;;;;;;;36.40;24.27;;;-7.90;99.90;;;;;;7386048;19;20352;-92
2021/12/27 02:48:24;;;;;;;39.80;24.33;;;-7.90;99.90;;;;;;7410998;19;20309;-88
2021/12/27 02:50:50;;;;;;;39.15;24.63;;;-7.90;99.90;;;;;;7409897;19;20319;-83
2021/12/27 02:53:16;;;;;;;36.25;23.50;;;-7.90;99.90;;;;;;7409269;19;20324;-86
2021/12/27 02:55:41;;;;;;;44.63;23.65;;;-7.70;99.90;;;;;;7409188;19;20359;-85
2021/12/27 02:58:07;;;;;;;22.15;15.70;;;-7.70;99.90;;;;;;7410865;19;20364;-87
2021/12/27 03:00:36;;;;;;;21.77;14.73;;;-7.80;99.90;;;;;;7397892;19;20685;-82
2021/12/27 03:03:02;;;;;;;29.73;16.52;;;-7.80;99.90;;;;;;7378168;19;20320;-82
2021/12/27 03:05:28;;;;;;;23.50;14.18;;;-7.70;99.90;;;;;;7400813;19;20342;-83
2021/12/27 03:07:54;;;;;;;29.60;15.77;;;-7.70;99.90;;;;;;7406634;19;20346;-85
2021/12/27 03:10:23;;;;;;;24.92;15.38;;;-7.70;99.90;;;;;;7406992;19;20316;-83
2021/12/27 03:12:49;;;;;;;20.67;15.82;;;-7.60;99.90;;;;;;7409306;19;20300;-87
2021/12/27 03:15:16;;;;;;;24.73;16.55;;;-7.50;99.90;;;;;;7403045;19;20344;-86
2021/12/27 03:17:46;;;;;;;19.35;14.38;;;-7.50;99.90;;;;;;7408688;19;20326;-84
2021/12/27 03:20:15;;;;;;;26.08;16.30;;;-7.50;99.90;;;;;;7406547;19;20336;-84
2021/12/27 03:22:42;;;;;;;26.83;16.93;;;-7.40;99.90;;;;;;7405326;19;20485;-86
2021/12/27 03:25:15;;;;;;;25.80;16.42;;;-7.40;99.90;;;;;;7409981;19;20344;-92
2021/12/27 03:27:41;;;;;;;24.45;15.70;;;-7.40;99.90;;;;;;7408551;19;20317;-89
2021/12/27 03:30:15;;;;;;;22.67;15.73;;;-7.30;99.90;;;;;;7408811;19;20676;-84
2021/12/27 03:32:41;;;;;;;31.30;16.40;;;-7.30;99.90;;;;;;7405871;19;20313;-82
2021/12/27 03:35:11;;;;;;;21.98;14.57;;;-7.30;99.90;;;;;;7409863;19;20377;-85
2021/12/27 03:37:45;;;;;;;27.23;17.13;;;-7.30;99.90;;;;;;7407973;19;20328;-83
2021/12/27 03:40:11;;;;;;;22.00;16.08;;;-7.40;99.90;;;;;;7410506;19;20316;-83
2021/12/27 03:42:37;;;;;;;20.88;15.65;;;-7.30;99.90;;;;;;7413373;19;20351;-82
2021/12/27 03:45:04;;;;;;;26.40;17.35;;;-7.10;99.90;;;;;;7414431;19;20356;-86
2021/12/27 03:47:30;;;;;;;28.85;15.48;;;-7.30;99.90;;;;;;7414976;19;20351;-83
2021/12/27 03:49:56;;;;;;;24.15;15.38;;;-7.30;99.90;;;;;;7411731;19;20308;-85
2021/12/27 03:52:22;;;;;;;25.08;15.60;;;-7.20;99.90;;;;;;7417907;19;20293;-81
2021/12/27 03:54:49;;;;;;;27.17;17.33;;;-7.00;99.90;;;;;;7415248;19;20340;-83
2021/12/27 03:57:16;;;;;;;24.52;16.00;;;-7.10;99.90;;;;;;7414207;19;21041;-84
2021/12/27 04:02:14;;;;;;;19.63;16.30;;;-7.10;99.90;;;;;;7420318;19;20379;-88
2021/12/27 04:04:40;;;;;;;26.63;17.42;;;-7.20;99.90;;;;;;7400130;19;20327;-84
2021/12/27 04:07:07;;;;;;;22.45;16.13;;;-7.10;99.90;;;;;;7417740;19;20341;-82
2021/12/27 04:09:34;;;;;;;24.98;16.70;;;-7.10;99.90;;;;;;7409469;19;20360;-87
2021/12/27 04:11:59;;;;;;;22.30;15.88;;;-7.10;99.90;;;;;;7409976;19;20317;-87
2021/12/27 04:14:25;;;;;;;21.97;15.50;;;-7.10;99.90;;;;;;7412653;19;20315;-85
2021/12/27 04:16:52;;;;;;;24.67;15.98;;;-7.10;99.90;;;;;;7414158;19;20371;-85
2021/12/27 04:19:18;;;;;;;25.05;16.98;;;-7.00;99.90;;;;;;7412965;19;20340;-82
2021/12/27 04:21:44;;;;;;;22.88;17.48;;;-7.10;99.90;;;;;;7414353;19;20310;-86
2021/12/27 04:24:10;;;;;;;25.65;15.80;;;-7.10;99.90;;;;;;7411270;19;20714;-82
2021/12/27 04:26:37;;;;;;;21.15;15.15;;;-7.00;99.90;;;;;;7409383;19;20305;-89
2021/12/27 04:29:04;;;;;;;20.23;15.85;;;-7.00;99.90;;;;;;7410624;19;20316;-84
2021/12/27 04:31:30;;;;;;;23.23;16.08;;;-7.00;99.90;;;;;;7407761;19;20352;-85
2021/12/27 04:33:56;;;;;;;21.40;15.13;;;-6.90;99.90;;;;;;7408288;19;20353;-92
2021/12/27 04:36:22;;;;;;;27.27;14.50;;;-6.90;99.90;;;;;;7407559;19;20325;-82
2021/12/27 04:38:49;;;;;;;23.33;15.70;;;-6.80;99.90;;;;;;7410068;19;20344;-86
2021/12/27 04:41:19;;;;;;;28.90;15.52;;;-6.90;99.90;;;;;;7414776;19;20317;-85
2021/12/27 04:43:45;;;;;;;21.40;15.77;;;-6.90;99.90;;;;;;7417758;19;20363;-85
2021/12/27 04:46:12;;;;;;;20.10;15.60;;;-6.80;99.90;;;;;;7421184;19;20312;-92
2021/12/27 04:48:39;;;;;;;19.15;14.38;;;-6.90;99.90;;;;;;7415108;19;20395;-91
2021/12/27 04:51:06;;;;;;;22.53;15.33;;;-6.80;99.90;;;;;;7414426;19;20381;-88
2021/12/27 04:53:35;;;;;;;24.83;15.40;;;-6.80;99.90;;;;;;7411729;19;20324;-85
2021/12/27 04:56:01;;;;;;;24.60;16.13;;;-6.80;99.90;;;;;;7413034;19;20304;-87
2021/12/27 04:58:29;;;;;;;24.17;14.73;;;-6.80;99.90;;;;;;7411614;19;20337;-83
2021/12/27 05:00:55;;;;;;;22.90;15.40;;;-6.70;99.90;;;;;;7392329;19;20344;-84
2021/12/27 05:03:21;;;;;;;27.42;17.42;;;-6.70;99.90;;;;;;7409809;19;20316;-86
2021/12/27 05:05:47;;;;;;;19.88;15.32;;;-6.70;99.90;;;;;;7407495;19;20297;-83
2021/12/27 05:08:13;;;;;;;24.53;15.43;;;-6.70;99.90;;;;;;7401862;19;20650;-88
2021/12/27 05:10:38;;;;;;;24.80;15.60;;;-6.70;99.90;;;;;;7403172;19;20320;-81
2021/12/27 05:13:04;;;;;;;23.50;15.48;;;-6.60;99.90;;;;;;7402665;19;20358;-82
2021/12/27 05:15:30;;;;;;;29.80;17.20;;;-6.60;99.90;;;;;;7406014;19;20409;-84
2021/12/27 05:17:56;;;;;;;28.53;17.03;;;-6.60;99.90;;;;;;7391232;19;20297;-83
2021/12/27 05:20:24;;;;;;;23.10;16.00;;;-6.40;99.90;;;;;;7410197;19;20325;-83
2021/12/27 05:22:50;;;;;;;28.08;16.10;;;-6.50;99.90;;;;;;7405469;19;20304;-85
2021/12/27 05:25:17;;;;;;;23.15;16.10;;;-6.50;99.90;;;;;;7414276;19;20312;-89
2021/12/27 05:27:47;;;;;;;24.13;15.55;;;-6.50;99.90;;;;;;7412814;19;20332;-91
2021/12/27 05:30:16;;;;;;;28.02;15.57;;;-6.40;99.90;;;;;;7414949;19;20316;-81
2021/12/27 05:32:44;;;;;;;26.73;17.50;;;-6.30;99.90;;;;;;7408992;19;20323;-83
2021/12/27 05:35:11;;;;;;;25.38;16.33;;;-6.40;99.90;;;;;;7410790;19;20331;-83
2021/12/27 05:37:38;;;;;;;27.77;16.15;;;-6.30;99.90;;;;;;7416789;19;20350;-81
2021/12/27 05:40:11;;;;;;;23.63;16.40;;;-6.40;99.90;;;;;;7411928;19;20407;-86
2021/12/27 05:42:41;;;;;;;28.00;16.73;;;-6.40;99.90;;;;;;7312762;19;2004405;-86
2021/12/27 05:45:07;;;;;;;21.35;14.43;;;-6.30;99.90;;;;;;7391454;19;20322;-88
2021/12/27 05:47:36;;;;;;;18.98;14.73;;;-6.40;99.90;;;;;;7410867;19;20344;-92
2021/12/27 05:50:05;;;;;;;27.52;15.82;;;-6.30;99.90;;;;;;7403378;19;20309;-84
2021/12/27 05:52:32;;;;;;;20.38;14.68;;;-6.30;99.90;;;;;;7406465;19;20323;-89
2021/12/27 05:54:59;;;;;;;17.05;13.68;;;-6.30;99.90;;;;;;7416941;19;20327;-92
2021/12/27 05:57:26;;;;;;;22.65;15.32;;;-6.20;99.90;;;;;;7417150;19;20303;-92
2021/12/27 05:59:57;;;;;;;18.23;14.02;;;-6.00;99.90;;;;;;7371650;19;20340;-93
2021/12/27 06:02:24;;;;;;;27.67;15.87;;;-6.20;99.90;;;;;;7416603;19;20354;-90
2021/12/27 06:04:52;;;;;;;24.02;15.20;;;-6.10;99.90;;;;;;7415327;19;20383;-83
2021/12/27 06:07:20;;;;;;;23.63;15.70;;;-5.90;99.90;;;;;;7418812;19;20348;-93
2021/12/27 06:09:48;;;;;;;26.63;15.98;;;-6.00;99.90;;;;;;7417394;19;20361;-95
2021/12/27 06:12:32;;;;;;;22.63;14.30;;;-6.00;99.90;;;;;;7345994;19;20303;-81
2021/12/27 06:16:01;;;;;;;26.23;17.00;;;-5.90;99.90;;;;;;7125881;19;2004490;-82
2021/12/27 06:22:50;;;;;;;21.00;15.13;;;-5.90;99.90;;;;;;7193723;19;2004538;-81
2021/12/27 06:26:41;;;;;;;33.03;16.90;;;-5.90;99.90;;;;;;7392743;19;20343;-81
2021/12/27 06:30:49;;;;;;;27.13;16.75;;;-5.80;99.90;;;;;;7409129;19;20356;-82
2021/12/27 06:34:53;;;;;;;26.55;15.95;;;-5.80;99.90;;;;;;7304764;19;21055;-82
2021/12/27 07:34:25;;;;;;;24.13;16.73;;;-5.60;99.90;;;;;;7395923;19;20308;-80
2021/12/27 07:36:52;;;;;;;29.48;16.65;;;-5.50;99.90;;;;;;7383947;19;20357;-80
2021/12/27 07:39:18;;;;;;;25.02;16.65;;;-5.50;99.90;;;;;;7381062;19;20341;-80
2021/12/27 07:41:44;;;;;;;24.17;15.60;;;-5.40;99.90;;;;;;7384690;19;20325;-80
2021/12/27 07:44:11;;;;;;;31.77;16.50;;;-5.50;99.90;;;;;;7383369;19;20376;-80
2021/12/27 07:46:40;;;;;;;23.80;16.00;;;-5.30;99.90;;;;;;7383169;19;20320;-78
2021/12/27 07:49:07;;;;;;;27.17;17.45;;;-5.30;99.90;;;;;;7388385;19;20317;-80
2021/12/27 07:51:33;;;;;;;21.83;16.23;;;-5.30;99.90;;;;;;7387300;19;20324;-79
2021/12/27 07:53:59;;;;;;;25.65;16.48;;;-5.30;99.90;;;;;;7384806;19;20359;-80
2021/12/27 07:56:31;;;;;;;26.75;18.02;;;-5.10;99.90;;;;;;7387543;19;20321;-79
2021/12/27 07:58:57;;;;;;;25.30;16.77;;;-5.30;99.90;;;;;;7366122;19;20664;-78
2021/12/27 08:01:23;;;;;;;25.45;17.63;;;-5.30;99.90;;;;;;7385382;19;20335;-78
2021/12/27 08:03:53;;;;;;;26.63;17.95;;;-5.20;99.90;;;;;;7346234;19;20317;-79
2021/12/27 08:06:19;;;;;;;24.58;18.10;;;-5.10;99.90;;;;;;7385290;19;20398;-78
2021/12/27 08:08:45;;;;;;;28.95;17.20;;;-5.20;99.90;;;;;;7384227;19;20316;-78
2021/12/27 08:11:10;;;;;;;21.35;16.45;;;-5.20;99.90;;;;;;7384079;19;20528;-79
2021/12/27 08:13:37;;;;;;;18.70;15.65;;;-5.10;99.90;;;;;;7384970;19;20929;-79
2021/12/27 08:16:03;;;;;;;24.77;17.30;;;-5.20;99.90;;;;;;7386028;19;20327;-78
2021/12/27 08:18:31;;;;;;;30.13;16.60;;;-5.10;99.90;;;;;;7386566;19;20385;-79
2021/12/27 08:20:59;;;;;;;20.55;15.00;;;-5.00;99.90;;;;;;7386632;19;20329;-79
2021/12/27 08:24:08;;;;;;;22.48;16.27;;;-4.80;99.90;;;;;;7284487;19;2004388;-79
2021/12/27 08:26:36;;;;;;;24.90;16.02;;;-4.80;99.90;;;;;;7391723;19;20316;-78
2021/12/27 08:29:04;;;;;;;24.77;17.23;;;-4.80;99.90;;;;;;7391682;19;20735;-79
2021/12/27 08:31:30;;;;;;;22.20;17.20;;;-4.80;99.90;;;;;;7391362;19;20337;-79
2021/12/27 08:33:56;;;;;;;24.67;17.33;;;-4.70;99.90;;;;;;7392240;19;20345;-79
2021/12/27 08:36:22;;;;;;;19.98;14.60;;;-4.70;99.90;;;;;;7392135;19;20866;-80
2021/12/27 08:38:50;;;;;;;23.02;16.75;;;-4.70;99.90;;;;;;7397196;19;20336;-79
2021/12/27 08:41:16;;;;;;;32.10;18.13;;;-4.60;99.90;;;;;;7391294;19;20317;-80
2021/12/27 08:43:42;;;;;;;25.50;17.33;;;-4.60;99.90;;;;;;7385681;19;21172;-80
2021/12/27 08:46:08;;;;;;;24.83;16.77;;;-4.60;99.90;;;;;;7391402;19;20400;-80
2021/12/27 08:48:34;;;;;;;23.65;16.30;;;-4.60;99.90;;;;;;7389587;19;20412;-81
2021/12/27 08:51:00;;;;;;;27.98;16.38;;;-4.60;99.90;;;;;;7394396;19;20312;-80
2021/12/27 08:53:26;;;;;;;23.63;16.92;;;-4.50;99.90;;;;;;7391560;19;20359;-81
2021/12/27 08:55:52;;;;;;;29.45;17.67;;;-4.50;99.90;;;;;;7393556;19;20332;-80
2021/12/27 08:58:19;;;;;;;26.30;16.25;;;-4.40;99.90;;;;;;7372594;19;21743;-81
2021/12/27 09:00:45;;;;;;;24.27;16.67;;;-4.40;99.90;;;;;;7391187;19;20693;-81
2021/12/27 09:03:11;;;;;;;28.27;16.15;;;-4.50;99.90;;;;;;7397269;19;20457;-81
2021/12/27 09:05:39;;;;;;;23.40;16.83;;;-4.40;99.90;;;;;;7394392;19;20420;-81
2021/12/27 09:08:08;;;;;;;24.60;16.30;;;-4.40;99.90;;;;;;7395044;19;20312;-80
2021/12/27 09:10:36;;;;;;;26.63;16.38;;;-4.40;99.90;;;;;;7395566;19;20349;-79
2021/12/27 09:13:02;;;;;;;29.13;18.45;;;-4.40;99.90;;;;;;7391473;19;20409;-82
2021/12/27 09:15:29;;;;;;;25.00;17.33;;;-4.30;99.90;;;;;;7394578;19;20349;-81
2021/12/27 09:17:59;;;;;;;20.98;16.92;;;-4.30;99.90;;;;;;7401091;19;20409;-80
2021/12/27 09:37:09;;;;;;;23.98;17.55;;;-3.90;99.90;;;;;;7419963;19;20341;-79
2021/12/27 09:46:44;;;;;;;28.47;18.07;;;-3.80;99.90;;;;;;7370530;19;20393;-92
2021/12/27 09:49:51;;;;;;;26.60;18.47;;;-3.80;99.90;;;;;;7364639;19;20351;-91
2021/12/27 10:14:03;;;;;;;22.17;15.38;;;-3.40;99.90;;;;;;7353296;19;20923;-81
2021/12/27 10:16:59;;;;;;;29.25;17.75;;;-3.50;99.90;;;;;;7394169;19;20331;-80
2021/12/27 10:19:33;;;;;;;22.88;16.58;;;-3.40;99.90;;;;;;7386241;19;20321;-80
2021/12/27 10:23:27;;;;;;;26.15;16.98;;;-3.40;99.90;;;;;;7367758;19;20320;-80
2021/12/27 10:27:02;;;;;;;24.45;18.45;;;-3.30;99.90;;;;;;7401089;19;20464;-80
2021/12/27 10:30:12;;;;;;;19.38;15.15;;;-3.30;99.90;;;;;;7415222;19;20376;-80
2021/12/27 10:35:50;;;;;;;28.77;17.52;;;-3.20;99.90;;;;;;7416520;19;20382;-80
2021/12/27 10:38:40;;;;;;;32.17;19.88;;;-3.20;99.90;;;;;;7374537;19;20333;-80
2021/12/27 10:41:24;;;;;;;34.28;18.67;;;-3.20;99.90;;;;;;7383248;19;20689;-80
2021/12/27 10:44:26;;;;;;;52.13;31.75;;;-3.30;99.90;;;;;;7282921;19;2004202;-80
2021/12/27 10:47:34;;;;;;;25.10;18.63;;;-3.20;99.90;;;;;;7343394;19;20339;-80
2021/12/27 10:50:24;;;;;;;28.00;18.68;;;-3.00;99.90;;;;;;7057961;19;2004526;-80
2021/12/27 10:53:35;;;;;;;29.90;19.30;;;-3.00;99.90;;;;;;7280548;19;2004411;-80
2021/12/27 10:56:53;;;;;;;30.95;20.25;;;-3.10;99.90;;;;;;7379555;19;20388;-80
2021/12/27 11:00:10;;;;;;;35.25;19.13;;;-3.10;99.90;;;;;;7362397;19;20875;-80
2021/12/27 11:03:30;;;;;;;29.58;18.52;;;-3.00;99.90;;;;;;7310523;19;2004465;-80
2021/12/27 11:06:57;;;;;;;26.77;17.70;;;-3.00;99.90;;;;;;7389122;19;20311;-81
2021/12/27 11:09:55;;;;;;;29.73;18.33;;;-2.90;99.90;;;;;;7358876;19;20409;-81
2021/12/27 11:12:48;;;;;;;28.15;19.05;;;-2.90;99.90;;;;;;7309549;19;2006649;-81
2021/12/27 11:25:20;;;;;;;35.60;18.50;;;-2.80;99.90;;;;;;7422179;19;20344;-80
2021/12/27 11:28:36;;;;;;;39.88;23.90;;;-2.70;99.90;;;;;;7383149;19;20360;-80
2021/12/27 11:39:47;;;;;;;35.35;23.20;;;-2.70;99.90;;;;;;7394188;19;20341;-80
2021/12/27 11:42:24;;;;;;;34.85;22.95;;;-2.70;99.90;;;;;;7389074;19;20321;-81
2021/12/27 11:44:58;;;;;;;39.38;23.45;;;-2.70;99.90;;;;;;7396621;19;20328;-80
2021/12/27 11:47:29;;;;;;;36.53;23.83;;;-2.70;99.90;;;;;;7383378;19;20356;-80
2021/12/27 11:50:23;;;;;;;31.60;22.33;;;-2.70;99.90;;;;;;7360079;19;20342;-80
2021/12/27 11:52:55;;;;;;;40.00;23.58;;;-2.70;99.90;;;;;;7286076;19;2004446;-80
2021/12/27 11:55:24;;;;;;;31.23;23.17;;;-2.60;99.90;;;;;;7388225;19;20417;-79
2021/12/27 11:57:58;;;;;;;31.02;20.58;;;-2.80;99.90;;;;;;7326933;19;20730;-79
2021/12/27 12:00:27;;;;;;;40.53;24.65;;;-2.70;99.90;;;;;;7368844;19;20753;-80
2021/12/27 12:03:13;;;;;;;36.80;24.13;;;-2.60;99.90;;;;;;7393445;19;20332;-79
2021/12/27 12:05:44;;;;;;;36.17;23.33;;;-2.70;99.90;;;;;;7352030;19;20372;-80
2021/12/27 12:08:20;;;;;;;38.60;23.60;;;-2.60;99.90;;;;;;7375584;19;20371;-79
2021/12/27 12:11:04;;;;;;;34.13;21.65;;;-2.40;99.90;;;;;;7376059;19;20343;-79
2021/12/27 12:13:41;;;;;;;39.17;24.35;;;-2.30;99.90;;;;;;7360943;19;20341;-79
2021/12/27 12:16:18;;;;;;;31.35;22.20;;;-2.20;99.90;;;;;;7387597;19;20376;-79
2021/12/27 12:18:50;;;;;;;31.00;21.58;;;-2.20;99.90;;;;;;7333337;19;20300;-78
2021/12/27 12:21:33;;;;;;;31.55;21.08;;;-2.20;99.90;;;;;;7368522;19;20317;-80
2021/12/27 12:24:17;;;;;;;37.13;23.15;;;-2.20;99.90;;;;;;7285515;19;2004261;-80
2021/12/27 12:27:12;;;;;;;36.67;22.90;;;-2.20;99.90;;;;;;7409728;19;20355;-79
2021/12/27 12:33:11;;;;;;;30.30;22.75;;;-2.10;99.90;;;;;;7366079;19;20329;-79
2021/12/27 12:36:04;;;;;;;36.92;24.33;;;-2.10;99.90;;;;;;7260579;19;2004429;-80
2021/12/27 12:38:48;;;;;;;34.97;22.65;;;-2.10;99.90;;;;;;7226138;19;2005411;-79
2021/12/27 12:42:30;;;;;;;36.57;22.43;;;-2.10;99.90;;;;;;7390356;19;20375;-80
2021/12/27 12:45:33;;;;;;;37.60;25.80;;;-2.10;99.90;;;;;;7309424;19;2004488;-80
2021/12/27 12:48:32;;;;;;;36.72;23.17;;;-2.00;99.90;;;;;;7408087;19;20632;-79
2021/12/27 12:51:29;;;;;;;33.88;21.98;;;-1.90;99.90;;;;;;7360884;19;20345;-80
2021/12/27 12:58:55;;;;;;;29.67;20.87;;;-1.90;99.90;;;;;;7205574;19;2004272;-79
2021/12/27 13:02:17;;;;;;;78.15;50.65;;;-1.90;99.90;;;;;;7305801;19;2004326;-79
2021/12/27 13:05:38;;;;;;;39.27;22.07;;;-1.90;99.90;;;;;;7192914;19;2004302;-81
2021/12/27 13:08:05;;;;;;;33.08;22.73;;;-2.00;99.90;;;;;;7275524;19;2004428;-81
2021/12/27 13:11:17;;;;;;;32.25;21.73;;;-1.90;99.90;;;;;;7377106;19;20317;-81
2021/12/27 13:14:40;;;;;;;28.92;19.55;;;-1.70;99.90;;;;;;7371104;19;20332;-80
2021/12/27 13:18:11;;;;;;;32.63;21.08;;;-1.50;99.90;;;;;;7302928;19;2004406;-80
2021/12/27 13:21:11;;;;;;;32.42;21.30;;;-1.30;99.90;;;;;;7402631;19;20367;-81
2021/12/27 13:23:43;;;;;;;33.63;22.30;;;-1.20;99.90;;;;;;7370970;19;20720;-79
2021/12/27 13:27:30;;;;;;;28.40;19.13;;;-1.20;99.90;;;;;;7349571;19;20305;-80
2021/12/27 13:30:43;;;;;;;33.08;21.83;;;-1.20;99.90;;;;;;7279544;19;2004432;-80
2021/12/27 13:33:44;;;;;;;35.05;21.85;;;-1.20;99.90;;;;;;7202318;19;2004307;-80
2021/12/27 13:36:56;;;;;;;36.35;21.70;;;-1.20;99.90;;;;;;7414390;19;20321;-79
2021/12/27 13:39:24;;;;;;;33.03;21.65;;;-1.40;99.90;;;;;;7302677;19;2005999;-80
2021/12/27 13:48:51;;;;;;;37.72;22.50;;;-1.40;99.90;;;;;;7404841;19;20337;-80
2021/12/27 13:55:07;;;;;;;36.55;22.13;;;-1.10;99.90;;;;;;7410382;19;20420;-80
2021/12/27 13:57:52;;;;;;;31.13;19.43;;;-0.90;99.90;;;;;;7202151;19;2004482;-80
2021/12/27 14:07:39;;;;;;;28.90;19.15;;;-0.50;99.90;;;;;;7395961;19;20327;-82
2021/12/27 14:14:24;;;;;;;31.30;20.10;;;-0.50;99.90;;;;;;7309042;19;20343;-80
2021/12/27 14:17:51;;;;;;;32.60;20.33;;;-0.50;99.90;;;;;;7205634;19;2004512;-80
2021/12/27 14:21:38;;;;;;;35.90;20.48;;;-0.60;99.90;;;;;;7238524;19;2004407;-80
2021/12/27 14:25:46;;;;;;;32.33;20.17;;;-0.70;99.90;;;;;;7411111;19;20345;-81
2021/12/27 14:29:04;;;;;;;32.70;20.63;;;-0.90;99.90;;;;;;7355707;19;20328;-81
2021/12/27 14:32:14;;;;;;;33.83;21.60;;;-0.70;99.90;;;;;;7334442;19;20309;-80
2021/12/27 15:05:27;;;;;;;28.38;21.27;;;-1.50;99.90;;;;;;7194598;19;2004382;-93
2021/12/27 15:08:27;;;;;;;37.03;22.00;;;-1.70;99.90;;;;;;7419680;19;20353;-89
2021/12/27 15:11:03;;;;;;;33.20;20.17;;;-1.80;99.90;;;;;;7423765;19;20344;-92
2021/12/27 15:14:21;;;;;;;31.50;20.90;;;-1.80;99.90;;;;;;7421253;19;20345;-94
2021/12/27 15:20:28;;;;;;;33.38;20.02;;;-1.90;99.90;;;;;;7218376;19;2004423;-93
2021/12/27 15:23:25;;;;;;;39.50;23.23;;;-1.90;99.90;;;;;;7240379;19;2004452;-93
2021/12/27 15:38:59;;;;;;;37.55;24.40;;;-2.10;99.90;;;;;;7415375;19;20439;-81
2021/12/27 15:52:03;;;;;;;32.80;20.17;;;-2.40;99.90;;;;;;7326837;19;20364;-85
2021/12/27 16:07:19;;;;;;;36.05;24.50;;;-2.40;99.90;;;;;;7368952;19;20339;-80
2021/12/27 16:13:19;;;;;;;37.10;25.58;;;-2.40;99.90;;;;;;7388562;19;20313;-80
2021/12/27 16:16:53;;;;;;;42.50;26.33;;;-2.50;99.90;;;;;;7316113;19;2004445;-81
2021/12/27 16:25:55;;;;;;;34.50;26.15;;;-2.50;99.90;;;;;;7406842;19;20846;-79
2021/12/27 16:29:20;;;;;;;40.30;26.45;;;-2.40;99.90;;;;;;7411711;19;20391;-79
2021/12/27 16:35:42;;;;;;;36.17;26.37;;;-2.50;99.90;;;;;;7218776;19;2004730;-79
2021/12/27 16:39:14;;;;;;;35.97;25.35;;;-2.50;99.90;;;;;;7385197;19;20301;-80
2021/12/27 16:41:58;;;;;;;41.15;23.65;;;-2.50;99.90;;;;;;7129833;19;2004421;-78
2021/12/27 16:45:14;;;;;;;34.30;24.60;;;-2.50;99.90;;;;;;7385933;19;20363;-80
2021/12/27 16:48:10;;;;;;;42.37;25.43;;;-2.50;99.90;;;;;;7203136;19;2004425;-79
2021/12/27 16:51:12;;;;;;;38.58;24.13;;;-2.60;99.90;;;;;;7245179;19;2004362;-80
2021/12/27 16:54:23;;;;;;;35.00;23.58;;;-2.60;99.90;;;;;;7206649;19;2004563;-82
2021/12/27 16:57:01;;;;;;;34.33;23.63;;;-2.70;99.90;;;;;;7335726;19;20321;-82
2021/12/27 17:00:53;;;;;;;40.17;24.40;;;-2.70;99.90;;;;;;7381758;19;20315;-83
2021/12/27 17:03:48;;;;;;;41.75;26.85;;;-2.70;99.90;;;;;;7370330;19;20317;-82
2021/12/27 17:06:40;;;;;;;38.42;24.30;;;-2.80;99.90;;;;;;7409710;19;20372;-80
2021/12/27 17:09:34;;;;;;;37.47;25.83;;;-2.70;99.90;;;;;;7251823;19;2004519;-80
2021/12/27 17:12:11;;;;;;;33.40;24.88;;;-2.80;99.90;;;;;;7236017;19;20336;-80
2021/12/27 17:15:20;;;;;;;41.97;25.67;;;-2.90;99.90;;;;;;7352432;19;20905;-80
2021/12/27 17:18:33;;;;;;;31.52;21.75;;;-2.70;99.90;;;;;;7382212;19;20782;-80
2021/12/27 17:21:39;;;;;;;33.20;23.33;;;-2.70;99.90;;;;;;7200424;19;2004409;-80
2021/12/27 17:24:36;;;;;;;26.77;19.92;;;-2.70;99.90;;;;;;7391693;19;20336;-83
2021/12/27 17:27:42;;;;;;;34.80;23.42;;;-2.70;99.90;;;;;;7351816;19;20304;-81
2021/12/27 17:30:24;;;;;;;32.28;22.95;;;-2.70;99.90;;;;;;7370036;19;20313;-82